sensor_id;sensor_type;location;lat;lon;timestamp;pressure;altitude;pressure_sealevel;temperature;humidity
22743;BME280;11538;48.884;8.696;2023-02-13T00:00:32;100705.78;;;3.02;100.00
22743;BME280;11538;48.884;8.696;2023-02-13T00:03:00;100699.81;;;3.00;100.00
22743;BME280;11538;48.884;8.696;2023-02-13T00:05:27;100695.66;;;2.91;100.00
22743;BME280;11538;48.884;8.696;2023-02-13T00:07:54;100695.22;;;2.81;100.00
22743;BME280;11538;48.884;8.696;2023-02-13T00:10:21;100691.91;;;2.78;100.00
22743;BME280;11538;48.884;8.696;2023-02-13T00:12:48;100684.28;;;2.75;100.00
22743;BME280;11538;48.884;8.696;2023-02-13T00:15:14;100682.41;;;2.69;100.00
22743;BME280;11538;48.884;8.696;2023-02-13T00:17:41;100682.41;;;2.69;100.00
22743;BME280;11538;48.884;8.696;2023-02-13T00:20:09;100678.47;;;2.72;100.00
22743;BME280;11538;48.884;8.696;2023-02-13T00:22:37;100692.28;;;2.69;100.00
22743;BME280;11538;48.884;8.696;2023-02-13T00:25:04;100691.88;;;2.65;100.00
22743;BME280;11538;48.884;8.696;2023-02-13T00:27:32;100683.44;;;2.68;100.00
22743;BME280;11538;48.884;8.696;2023-02-13T00:29:59;100682.78;;;2.66;100.00
22743;BME280;11538;48.884;8.696;2023-02-13T00:32:25;100683.16;;;2.63;100.00
22743;BME280;11538;48.884;8.696;2023-02-13T00:34:52;100692.63;;;2.59;100.00
22743;BME280;11538;48.884;8.696;2023-02-13T00:37:19;100685.59;;;2.51;100.00
22743;BME280;11538;48.884;8.696;2023-02-13T00:39:45;100689.94;;;2.52;100.00
22743;BME280;11538;48.884;8.696;2023-02-13T00:42:12;100689.94;;;2.59;100.00
22743;BME280;11538;48.884;8.696;2023-02-13T00:44:39;100692.69;;;2.66;100.00
22743;BME280;11538;48.884;8.696;2023-02-13T00:47:06;100695.16;;;2.67;100.00
22743;BME280;11538;48.884;8.696;2023-02-13T00:49:33;100690.00;;;2.66;100.00
22743;BME280;11538;48.884;8.696;2023-02-13T00:52:00;100686.88;;;2.62;100.00
22743;BME280;11538;48.884;8.696;2023-02-13T00:54:27;100690.84;;;2.66;100.00
22743;BME280;11538;48.884;8.696;2023-02-13T00:56:53;100688.97;;;2.67;100.00
22743;BME280;11538;48.884;8.696;2023-02-13T00:59:20;100691.22;;;2.63;100.00
22743;BME280;11538;48.884;8.696;2023-02-13T01:01:47;100695.94;;;2.61;100.00
22743;BME280;11538;48.884;8.696;2023-02-13T01:04:14;100685.22;;;2.61;100.00
22743;BME280;11538;48.884;8.696;2023-02-13T01:06:41;100688.69;;;2.55;100.00
22743;BME280;11538;48.884;8.696;2023-02-13T01:09:07;100691.16;;;2.49;100.00
22743;BME280;11538;48.884;8.696;2023-02-13T01:11:34;100693.19;;;2.47;100.00
22743;BME280;11538;48.884;8.696;2023-02-13T01:14:01;100685.97;;;2.41;100.00
22743;BME280;11538;48.884;8.696;2023-02-13T01:16:28;100684.31;;;2.40;100.00
22743;BME280;11538;48.884;8.696;2023-02-13T01:18:54;100676.91;;;2.42;100.00
22743;BME280;11538;48.884;8.696;2023-02-13T01:21:21;100673.63;;;2.47;100.00
22743;BME280;11538;48.884;8.696;2023-02-13T01:23:49;100674.03;;;2.44;100.00
22743;BME280;11538;48.884;8.696;2023-02-13T01:26:19;100671.53;;;2.42;100.00
22743;BME280;11538;48.884;8.696;2023-02-13T01:28:47;100668.63;;;2.37;100.00
22743;BME280;11538;48.884;8.696;2023-02-13T01:31:14;100666.56;;;2.32;100.00
22743;BME280;11538;48.884;8.696;2023-02-13T01:33:41;100662.88;;;2.33;100.00
22743;BME280;11538;48.884;8.696;2023-02-13T01:36:10;100675.41;;;2.33;100.00
22743;BME280;11538;48.884;8.696;2023-02-13T01:38:38;100668.22;;;2.33;100.00
22743;BME280;11538;48.884;8.696;2023-02-13T01:41:04;100669.25;;;2.32;100.00
22743;BME280;11538;48.884;8.696;2023-02-13T01:46:49;100663.91;;;2.39;100.00
22743;BME280;11538;48.884;8.696;2023-02-13T01:49:20;100669.88;;;2.41;100.00
22743;BME280;11538;48.884;8.696;2023-02-13T01:51:52;100665.78;;;2.39;100.00
22743;BME280;11538;48.884;8.696;2023-02-13T01:54:25;100663.91;;;2.39;100.00
22743;BME280;11538;48.884;8.696;2023-02-13T01:57:01;100659.00;;;2.43;100.00
22743;BME280;11538;48.884;8.696;2023-02-13T01:59:36;100662.06;;;2.40;100.00
22743;BME280;11538;48.884;8.696;2023-02-13T02:02:06;100674.44;;;2.41;100.00
22743;BME280;11538;48.884;8.696;2023-02-13T02:04:37;100668.88;;;2.42;100.00
22743;BME280;11538;48.884;8.696;2023-02-13T02:07:26;100672.78;;;2.40;100.00
22743;BME280;11538;48.884;8.696;2023-02-13T02:09:59;100670.66;;;2.28;100.00
22743;BME280;11538;48.884;8.696;2023-02-13T02:12:36;100666.69;;;2.17;100.00
22743;BME280;11538;48.884;8.696;2023-02-13T02:15:05;100670.00;;;2.19;100.00
22743;BME280;11538;48.884;8.696;2023-02-13T02:17:32;100667.69;;;2.10;100.00
22743;BME280;11538;48.884;8.696;2023-02-13T02:23:25;100681.59;;;1.98;100.00
22743;BME280;11538;48.884;8.696;2023-02-13T02:26:26;100673.53;;;1.92;100.00
22743;BME280;11538;48.884;8.696;2023-02-13T02:29:09;100676.00;;;1.93;100.00
22743;BME280;11538;48.884;8.696;2023-02-13T02:34:45;100669.38;;;1.89;100.00
22743;BME280;11538;48.884;8.696;2023-02-13T02:40:36;100662.59;;;1.86;100.00
22743;BME280;11538;48.884;8.696;2023-02-13T02:46:28;100665.28;;;1.93;100.00
22743;BME280;11538;48.884;8.696;2023-02-13T02:49:11;100662.50;;;2.08;100.00
22743;BME280;11538;48.884;8.696;2023-02-13T02:52:17;100663.69;;;1.99;100.00
22743;BME280;11538;48.884;8.696;2023-02-13T02:54:53;100660.72;;;1.87;100.00
22743;BME280;11538;48.884;8.696;2023-02-13T02:57:37;100659.84;;;1.80;100.00
22743;BME280;11538;48.884;8.696;2023-02-13T03:00:26;100661.66;;;1.72;100.00
22743;BME280;11538;48.884;8.696;2023-02-13T03:03:17;100651.16;;;1.71;100.00
22743;BME280;11538;48.884;8.696;2023-02-13T03:06:27;100654.31;;;1.81;100.00
22743;BME280;11538;48.884;8.696;2023-02-13T03:08:58;100653.06;;;1.77;100.00
22743;BME280;11538;48.884;8.696;2023-02-13T03:11:48;100649.78;;;1.82;100.00
22743;BME280;11538;48.884;8.696;2023-02-13T03:14:36;100658.25;;;1.85;100.00
22743;BME280;11538;48.884;8.696;2023-02-13T03:17:03;100658.00;;;1.80;100.00
22743;BME280;11538;48.884;8.696;2023-02-13T03:23:14;100657.19;;;1.80;100.00
22743;BME280;11538;48.884;8.696;2023-02-13T03:34:03;100654.63;;;1.65;100.00
22743;BME280;11538;48.884;8.696;2023-02-13T03:36:51;100662.88;;;1.70;100.00
22743;BME280;11538;48.884;8.696;2023-02-13T03:40:02;100664.38;;;1.79;100.00
22743;BME280;11538;48.884;8.696;2023-02-13T03:42:35;100668.09;;;1.78;100.00
22743;BME280;11538;48.884;8.696;2023-02-13T03:45:12;100666.63;;;1.75;100.00
22743;BME280;11538;48.884;8.696;2023-02-13T03:48:01;100671.09;;;1.68;100.00
22743;BME280;11538;48.884;8.696;2023-02-13T03:50:37;100670.81;;;1.56;100.00
22743;BME280;11538;48.884;8.696;2023-02-13T03:53:09;100680.09;;;1.60;100.00
22743;BME280;11538;48.884;8.696;2023-02-13T03:55:45;100678.69;;;1.65;100.00
22743;BME280;11538;48.884;8.696;2023-02-13T03:58:35;100678.06;;;1.63;100.00
22743;BME280;11538;48.884;8.696;2023-02-13T04:01:25;100688.16;;;1.67;100.00
22743;BME280;11538;48.884;8.696;2023-02-13T04:04:02;100684.44;;;1.62;100.00
22743;BME280;11538;48.884;8.696;2023-02-13T04:06:35;100683.91;;;1.73;100.00
22743;BME280;11538;48.884;8.696;2023-02-13T04:09:03;100699.97;;;1.73;100.00
22743;BME280;11538;48.884;8.696;2023-02-13T04:11:35;100694.22;;;1.76;100.00
22743;BME280;11538;48.884;8.696;2023-02-13T04:14:07;100690.66;;;1.69;100.00
22743;BME280;11538;48.884;8.696;2023-02-13T04:16:39;100699.06;;;1.66;100.00
22743;BME280;11538;48.884;8.696;2023-02-13T04:19:07;100703.97;;;1.62;100.00
22743;BME280;11538;48.884;8.696;2023-02-13T04:21:38;100696.34;;;1.59;100.00
22743;BME280;11538;48.884;8.696;2023-02-13T04:24:06;100703.97;;;1.62;100.00
22743;BME280;11538;48.884;8.696;2023-02-13T04:26:39;100701.88;;;1.57;100.00
22743;BME280;11538;48.884;8.696;2023-02-13T04:29:07;100708.66;;;1.53;100.00
22743;BME280;11538;48.884;8.696;2023-02-13T04:31:34;100702.59;;;1.44;100.00
22743;BME280;11538;48.884;8.696;2023-02-13T04:34:01;100711.63;;;1.43;100.00
22743;BME280;11538;48.884;8.696;2023-02-13T04:36:28;100707.28;;;1.42;100.00
22743;BME280;11538;48.884;8.696;2023-02-13T04:38:55;100706.75;;;1.47;100.00
22743;BME280;11538;48.884;8.696;2023-02-13T04:41:22;100702.59;;;1.44;100.00
22743;BME280;11538;48.884;8.696;2023-02-13T04:43:49;100700.50;;;1.40;100.00
22743;BME280;11538;48.884;8.696;2023-02-13T04:46:18;100704.19;;;1.39;100.00
22743;BME280;11538;48.884;8.696;2023-02-13T04:48:45;100707.50;;;1.41;100.00
22743;BME280;11538;48.884;8.696;2023-02-13T04:51:13;100713.88;;;1.40;100.00
22743;BME280;11538;48.884;8.696;2023-02-13T04:53:40;100708.63;;;1.31;100.00
22743;BME280;11538;48.884;8.696;2023-02-13T04:56:06;100715.38;;;1.27;100.00
22743;BME280;11538;48.884;8.696;2023-02-13T04:58:33;100712.44;;;1.22;100.00
22743;BME280;11538;48.884;8.696;2023-02-13T05:01:00;100700.72;;;1.23;100.00
22743;BME280;11538;48.884;8.696;2023-02-13T05:03:27;100703.66;;;1.28;100.00
22743;BME280;11538;48.884;8.696;2023-02-13T05:05:53;100712.69;;;1.27;100.00
22743;BME280;11538;48.884;8.696;2023-02-13T05:08:20;100706.31;;;1.28;100.00
22743;BME280;11538;48.884;8.696;2023-02-13T05:10:47;100700.72;;;1.23;100.00
22743;BME280;11538;48.884;8.696;2023-02-13T05:13:14;100696.41;;;1.22;100.00
22743;BME280;11538;48.884;8.696;2023-02-13T05:15:42;100697.88;;;1.25;100.00
22743;BME280;11538;48.884;8.696;2023-02-13T05:18:09;100695.38;;;1.23;100.00
22743;BME280;11538;48.884;8.696;2023-02-13T05:20:35;100705.69;;;1.26;100.00
22743;BME280;11538;48.884;8.696;2023-02-13T05:23:02;100698.69;;;1.25;100.00
22743;BME280;11538;48.884;8.696;2023-02-13T05:25:48;100695.59;;;1.22;100.00
22743;BME280;11538;48.884;8.696;2023-02-13T05:28:15;100701.31;;;1.19;100.00
22743;BME280;11538;48.884;8.696;2023-02-13T05:31:01;100697.50;;;1.28;100.00
22743;BME280;11538;48.884;8.696;2023-02-13T05:33:28;100704.97;;;1.33;100.00
22743;BME280;11538;48.884;8.696;2023-02-13T05:35:55;100704.97;;;1.33;100.00
22743;BME280;11538;48.884;8.696;2023-02-13T05:38:22;100700.25;;;1.35;100.00
22743;BME280;11538;48.884;8.696;2023-02-13T05:40:49;100700.69;;;1.38;100.00
22743;BME280;11538;48.884;8.696;2023-02-13T05:43:15;100697.50;;;1.28;100.00
22743;BME280;11538;48.884;8.696;2023-02-13T05:45:42;100694.81;;;1.28;100.00
22743;BME280;11538;48.884;8.696;2023-02-13T05:48:09;100703.59;;;1.22;100.00
22743;BME280;11538;48.884;8.696;2023-02-13T05:50:36;100696.34;;;1.15;100.00
22743;BME280;11538;48.884;8.696;2023-02-13T05:53:03;100696.53;;;1.14;100.00
22743;BME280;11538;48.884;8.696;2023-02-13T05:55:30;100692.56;;;1.10;100.00
22743;BME280;11538;48.884;8.696;2023-02-13T05:57:57;100691.56;;;1.11;100.00
22743;BME280;11538;48.884;8.696;2023-02-13T06:00:24;100693.22;;;1.12;100.00
22743;BME280;11538;48.884;8.696;2023-02-13T06:02:51;100682.78;;;1.17;100.00
22743;BME280;11538;48.884;8.696;2023-02-13T06:05:18;100687.75;;;1.20;100.00
22743;BME280;11538;48.884;8.696;2023-02-13T06:07:44;100690.25;;;1.22;100.00
22743;BME280;11538;48.884;8.696;2023-02-13T06:10:11;100690.25;;;1.22;100.00
22743;BME280;11538;48.884;8.696;2023-02-13T06:12:38;100687.56;;;1.22;100.00
22743;BME280;11538;48.884;8.696;2023-02-13T06:15:05;100687.94;;;1.19;100.00
22743;BME280;11538;48.884;8.696;2023-02-13T06:17:32;100688.50;;;1.14;100.00
22743;BME280;11538;48.884;8.696;2023-02-13T06:19:59;100691.19;;;1.14;100.00
22743;BME280;11538;48.884;8.696;2023-02-13T06:22:26;100687.38;;;1.23;100.00
22743;BME280;11538;48.884;8.696;2023-02-13T06:24:53;100686.53;;;1.23;100.00
22743;BME280;11538;48.884;8.696;2023-02-13T06:27:19;100682.47;;;1.27;100.00
22743;BME280;11538;48.884;8.696;2023-02-13T06:29:46;100680.69;;;1.34;100.00
22743;BME280;11538;48.884;8.696;2023-02-13T06:32:14;100680.31;;;1.37;100.00
22743;BME280;11538;48.884;8.696;2023-02-13T06:34:41;100676.19;;;1.35;100.00
22743;BME280;11538;48.884;8.696;2023-02-13T06:37:07;100678.22;;;1.33;100.00
22743;BME280;11538;48.884;8.696;2023-02-13T06:39:34;100681.16;;;1.38;100.00
22743;BME280;11538;48.884;8.696;2023-02-13T06:42:01;100675.16;;;1.36;100.00
22743;BME280;11538;48.884;8.696;2023-02-13T06:44:27;100676.53;;;1.31;100.00
22743;BME280;11538;48.884;8.696;2023-02-13T06:46:54;100675.97;;;1.36;100.00
22743;BME280;11538;48.884;8.696;2023-02-13T06:49:21;100675.41;;;1.41;100.00
22743;BME280;11538;48.884;8.696;2023-02-13T06:51:48;100675.41;;;1.41;100.00
22743;BME280;11538;48.884;8.696;2023-02-13T06:54:14;100676.22;;;1.41;100.00
22743;BME280;11538;48.884;8.696;2023-02-13T06:56:41;100683.69;;;1.46;100.00
22743;BME280;11538;48.884;8.696;2023-02-13T06:59:08;100687.16;;;1.46;100.00
22743;BME280;11538;48.884;8.696;2023-02-13T07:01:34;100693.13;;;1.42;100.00
22743;BME280;11538;48.884;8.696;2023-02-13T07:04:01;100690.19;;;1.37;100.00
22743;BME280;11538;48.884;8.696;2023-02-13T07:06:28;100688.91;;;1.33;100.00
22743;BME280;11538;48.884;8.696;2023-02-13T07:08:55;100696.28;;;1.30;100.00
22743;BME280;11538;48.884;8.696;2023-02-13T07:11:23;100701.56;;;1.24;100.00
22743;BME280;11538;48.884;8.696;2023-02-13T07:13:50;100699.28;;;1.21;100.00
22743;BME280;11538;48.884;8.696;2023-02-13T07:16:17;100701.94;;;1.21;100.00
22743;BME280;11538;48.884;8.696;2023-02-13T07:18:44;100709.34;;;1.19;100.00
22743;BME280;11538;48.884;8.696;2023-02-13T07:21:11;100702.50;;;1.16;100.00
22743;BME280;11538;48.884;8.696;2023-02-13T07:23:37;100707.47;;;1.19;100.00
22743;BME280;11538;48.884;8.696;2023-02-13T07:26:04;100710.16;;;1.19;100.00
22743;BME280;11538;48.884;8.696;2023-02-13T07:28:31;100706.84;;;1.17;100.00
22743;BME280;11538;48.884;8.696;2023-02-13T07:31:03;100708.38;;;1.26;100.00
22743;BME280;11538;48.884;8.696;2023-02-13T07:33:34;100703.09;;;1.33;100.00
22743;BME280;11538;48.884;8.696;2023-02-13T07:36:02;100704.28;;;1.30;100.00
22743;BME280;11538;48.884;8.696;2023-02-13T07:38:31;100704.59;;;1.36;100.00
22743;BME280;11538;48.884;8.696;2023-02-13T07:41:02;100713.41;;;1.36;100.00
22743;BME280;11538;48.884;8.696;2023-02-13T07:43:29;100706.66;;;1.40;100.00
22743;BME280;11538;48.884;8.696;2023-02-13T07:46:00;100708.41;;;1.48;100.00
22743;BME280;11538;48.884;8.696;2023-02-13T07:48:28;100709.91;;;1.57;100.00
22743;BME280;11538;48.884;8.696;2023-02-13T07:50:59;100708.00;;;1.51;100.00
22743;BME280;11538;48.884;8.696;2023-02-13T07:53:27;100705.13;;;1.53;100.00
22743;BME280;11538;48.884;8.696;2023-02-13T07:55:54;100710.94;;;1.56;100.00
22743;BME280;11538;48.884;8.696;2023-02-13T07:58:21;100703.78;;;1.64;100.00
22743;BME280;11538;48.884;8.696;2023-02-13T08:00:48;100696.81;;;1.69;100.00
22743;BME280;11538;48.884;8.696;2023-02-13T08:03:15;100698.34;;;1.79;100.00
22743;BME280;11538;48.884;8.696;2023-02-13T08:05:41;100692.97;;;1.79;100.00
22743;BME280;11538;48.884;8.696;2023-02-13T08:08:08;100699.59;;;1.83;100.00
22743;BME280;11538;48.884;8.696;2023-02-13T08:10:35;100697.63;;;1.92;100.00
22743;BME280;11538;48.884;8.696;2023-02-13T08:13:20;100694.47;;;2.16;100.00
22743;BME280;11538;48.884;8.696;2023-02-13T08:15:47;100698.50;;;2.34;100.00
22743;BME280;11538;48.884;8.696;2023-02-13T08:18:14;100689.72;;;2.54;100.00
22743;BME280;11538;48.884;8.696;2023-02-13T08:20:40;100693.94;;;2.70;100.00
22743;BME280;11538;48.884;8.696;2023-02-13T08:23:09;100696.66;;;2.83;100.00
22743;BME280;11538;48.884;8.696;2023-02-13T08:25:37;100684.94;;;2.98;100.00
22743;BME280;11538;48.884;8.696;2023-02-13T08:28:04;100689.72;;;3.09;100.00
22743;BME280;11538;48.884;8.696;2023-02-13T08:30:31;100690.16;;;3.26;100.00
22743;BME280;11538;48.884;8.696;2023-02-13T08:32:58;100690.81;;;3.42;100.00
22743;BME280;11538;48.884;8.696;2023-02-13T08:35:25;100695.97;;;3.63;100.00
22743;BME280;11538;48.884;8.696;2023-02-13T08:37:55;100690.19;;;3.73;100.00
22743;BME280;11538;48.884;8.696;2023-02-13T08:40:22;100688.75;;;3.91;100.00
22743;BME280;11538;48.884;8.696;2023-02-13T08:42:51;100686.47;;;4.08;100.00
22743;BME280;11538;48.884;8.696;2023-02-13T08:45:18;100685.34;;;4.29;100.00
22743;BME280;11538;48.884;8.696;2023-02-13T08:47:45;100680.81;;;4.30;100.00
22743;BME280;11538;48.884;8.696;2023-02-13T08:50:12;100686.16;;;4.43;100.00
22743;BME280;11538;48.884;8.696;2023-02-13T08:52:38;100677.19;;;4.56;99.13
22743;BME280;11538;48.884;8.696;2023-02-13T08:55:07;100681.13;;;4.60;99.01
22743;BME280;11538;48.884;8.696;2023-02-13T08:57:34;100676.50;;;4.74;98.48
22743;BME280;11538;48.884;8.696;2023-02-13T09:00:01;100677.06;;;4.90;97.10
22743;BME280;11538;48.884;8.696;2023-02-13T09:02:28;100676.81;;;4.98;96.72
22743;BME280;11538;48.884;8.696;2023-02-13T09:04:55;100685.56;;;5.19;95.97
22743;BME280;11538;48.884;8.696;2023-02-13T09:07:22;100680.31;;;5.37;94.52
22743;BME280;11538;48.884;8.696;2023-02-13T09:09:49;100679.69;;;5.35;94.45
22743;BME280;11538;48.884;8.696;2023-02-13T09:12:16;100684.03;;;5.36;94.43
22743;BME280;11538;48.884;8.696;2023-02-13T09:14:43;100686.78;;;5.55;94.53
22743;BME280;11538;48.884;8.696;2023-02-13T09:17:10;100686.53;;;5.63;93.17
22743;BME280;11538;48.884;8.696;2023-02-13T09:19:36;100681.81;;;5.77;92.50
22743;BME280;11538;48.884;8.696;2023-02-13T09:22:03;100683.78;;;5.89;91.81
22743;BME280;11538;48.884;8.696;2023-02-13T09:24:30;100684.69;;;6.08;90.93
22743;BME280;11538;48.884;8.696;2023-02-13T09:26:57;100681.84;;;6.21;90.41
22743;BME280;11538;48.884;8.696;2023-02-13T09:29:24;100678.34;;;6.21;90.19
22743;BME280;11538;48.884;8.696;2023-02-13T09:31:50;100682.91;;;6.39;89.31
22743;BME280;11538;48.884;8.696;2023-02-13T09:34:18;100679.56;;;6.43;88.87
22743;BME280;11538;48.884;8.696;2023-02-13T09:36:45;100687.34;;;6.33;89.88
22743;BME280;11538;48.884;8.696;2023-02-13T09:39:11;100692.94;;;6.32;90.18
22743;BME280;11538;48.884;8.696;2023-02-13T09:41:41;100682.59;;;6.47;90.14
22743;BME280;11538;48.884;8.696;2023-02-13T09:44:17;100686.41;;;6.77;88.59
22743;BME280;11538;48.884;8.696;2023-02-13T09:47:15;100684.91;;;6.81;88.42
22743;BME280;11538;48.884;8.696;2023-02-13T09:49:53;100693.69;;;7.07;86.95
22743;BME280;11538;48.884;8.696;2023-02-13T09:52:21;100698.41;;;7.11;86.66
22743;BME280;11538;48.884;8.696;2023-02-13T09:54:48;100698.25;;;7.06;86.35
22743;BME280;11538;48.884;8.696;2023-02-13T09:57:16;100700.50;;;7.09;87.39
22743;BME280;11538;48.884;8.696;2023-02-13T10:00:01;100700.81;;;7.31;85.83
22743;BME280;11538;48.884;8.696;2023-02-13T10:05:05;100700.88;;;7.67;84.42
22743;BME280;11538;48.884;8.696;2023-02-13T10:13:30;100703.72;;;7.84;83.11
22743;BME280;11538;48.884;8.696;2023-02-13T10:16:16;100707.81;;;7.87;83.19
22743;BME280;11538;48.884;8.696;2023-02-13T10:18:56;100708.91;;;8.10;82.84
22743;BME280;11538;48.884;8.696;2023-02-13T10:21:27;100708.44;;;8.13;82.09
22743;BME280;11538;48.884;8.696;2023-02-13T10:24:06;100705.94;;;8.35;81.80
22743;BME280;11538;48.884;8.696;2023-02-13T10:26:39;100704.28;;;8.58;80.56
22743;BME280;11538;48.884;8.696;2023-02-13T10:29:21;100706.84;;;8.65;80.04
22743;BME280;11538;48.884;8.696;2023-02-13T10:32:10;100709.56;;;8.65;80.20
22743;BME280;11538;48.884;8.696;2023-02-13T10:34:44;100710.25;;;8.72;79.67
22743;BME280;11538;48.884;8.696;2023-02-13T10:37:15;100707.78;;;8.70;80.01
22743;BME280;11538;48.884;8.696;2023-02-13T10:39:45;100705.78;;;8.66;80.45
22743;BME280;11538;48.884;8.696;2023-02-13T10:45:15;100697.59;;;8.89;80.49
22743;BME280;11538;48.884;8.696;2023-02-13T10:53:34;100684.34;;;9.51;79.85
22743;BME280;11538;48.884;8.696;2023-02-13T10:56:31;100673.44;;;9.63;79.40
22743;BME280;11538;48.884;8.696;2023-02-13T11:02:01;100663.91;;;10.17;77.95
22743;BME280;11538;48.884;8.696;2023-02-13T11:04:34;100661.72;;;10.36;76.57
22743;BME280;11538;48.884;8.696;2023-02-13T11:07:03;100665.66;;;10.45;75.94
22743;BME280;11538;48.884;8.696;2023-02-13T11:09:36;100657.94;;;10.59;76.78
22743;BME280;11538;48.884;8.696;2023-02-13T11:12:24;100661.88;;;10.68;74.60
22743;BME280;11538;48.884;8.696;2023-02-13T11:15:03;100658.50;;;10.83;75.04
22743;BME280;11538;48.884;8.696;2023-02-13T11:17:33;100654.75;;;11.17;75.09
22743;BME280;11538;48.884;8.696;2023-02-13T11:25:52;100662.53;;;12.06;70.13
22743;BME280;11538;48.884;8.696;2023-02-13T11:28:21;100652.59;;;12.38;69.61
22743;BME280;11538;48.884;8.696;2023-02-13T11:30:48;100652.97;;;12.67;68.40
22743;BME280;11538;48.884;8.696;2023-02-13T11:35:44;100649.00;;;13.06;65.00
22743;BME280;11538;48.884;8.696;2023-02-13T11:40:44;100653.69;;;13.52;62.74
22743;BME280;11538;48.884;8.696;2023-02-13T11:43:36;100646.84;;;13.70;61.74
22743;BME280;11538;48.884;8.696;2023-02-13T11:46:16;100649.78;;;14.05;60.44
22743;BME280;11538;48.884;8.696;2023-02-13T11:49:03;100651.03;;;14.39;60.01
22743;BME280;11538;48.884;8.696;2023-02-13T11:51:45;100648.19;;;14.70;60.00
22743;BME280;11538;48.884;8.696;2023-02-13T11:54:37;100646.97;;;14.91;58.15
22743;BME280;11538;48.884;8.696;2023-02-13T11:57:21;100643.09;;;14.98;57.31
22743;BME280;11538;48.884;8.696;2023-02-13T11:59:51;100642.75;;;15.10;57.05
22743;BME280;11538;48.884;8.696;2023-02-13T12:02:22;100645.19;;;15.46;56.09
22743;BME280;11538;48.884;8.696;2023-02-13T12:05:13;100643.47;;;15.85;55.71
22743;BME280;11538;48.884;8.696;2023-02-13T12:07:41;100640.22;;;15.83;50.46
22743;BME280;11538;48.884;8.696;2023-02-13T12:12:51;100629.59;;;16.30;50.08
22743;BME280;11538;48.884;8.696;2023-02-13T12:15:22;100640.47;;;16.35;49.27
22743;BME280;11538;48.884;8.696;2023-02-13T12:17:58;100634.75;;;16.31;47.27
22743;BME280;11538;48.884;8.696;2023-02-13T12:20:37;100635.34;;;16.72;46.38
22743;BME280;11538;48.884;8.696;2023-02-13T12:23:40;100635.38;;;16.47;45.46
22743;BME280;11538;48.884;8.696;2023-02-13T12:26:34;100631.22;;;16.50;45.99
22743;BME280;11538;48.884;8.696;2023-02-13T12:32:03;100628.41;;;16.55;43.91
22743;BME280;11538;48.884;8.696;2023-02-13T12:34:48;100625.72;;;16.74;43.17
22743;BME280;11538;48.884;8.696;2023-02-13T12:37:45;100621.66;;;17.10;42.68
22743;BME280;11538;48.884;8.696;2023-02-13T12:46:39;100618.09;;;16.90;40.15
22743;BME280;11538;48.884;8.696;2023-02-13T12:52:07;100625.78;;;17.07;39.72
22743;BME280;11538;48.884;8.696;2023-02-13T12:54:53;100622.38;;;16.77;39.67
22743;BME280;11538;48.884;8.696;2023-02-13T13:03:29;100609.78;;;16.95;39.70
22743;BME280;11538;48.884;8.696;2023-02-13T13:06:12;100615.69;;;16.84;39.55
22743;BME280;11538;48.884;8.696;2023-02-13T13:22:14;100613.78;;;17.22;39.05
22743;BME280;11538;48.884;8.696;2023-02-13T13:25:08;100615.81;;;17.31;38.45
22743;BME280;11538;48.884;8.696;2023-02-13T13:27:44;100604.56;;;17.32;37.80
22743;BME280;11538;48.884;8.696;2023-02-13T13:30:25;100610.56;;;17.34;38.34
22743;BME280;11538;48.884;8.696;2023-02-13T13:32:59;100608.34;;;17.36;38.33
22743;BME280;11538;48.884;8.696;2023-02-13T13:35:28;100605.59;;;17.36;38.84
22743;BME280;11538;48.884;8.696;2023-02-13T13:38:15;100601.00;;;17.32;39.11
22743;BME280;11538;48.884;8.696;2023-02-13T13:41:05;100608.44;;;17.45;39.60
22743;BME280;11538;48.884;8.696;2023-02-13T13:46:59;100604.06;;;17.44;39.63
22743;BME280;11538;48.884;8.696;2023-02-13T13:49:49;100610.44;;;17.25;40.09
22743;BME280;11538;48.884;8.696;2023-02-13T13:52:25;100607.84;;;17.15;39.83
22743;BME280;11538;48.884;8.696;2023-02-13T13:54:54;100591.41;;;17.15;40.04
22743;BME280;11538;48.884;8.696;2023-02-13T13:57:25;100600.94;;;17.18;40.46
22743;BME280;11538;48.884;8.696;2023-02-13T13:59:59;100606.38;;;17.23;39.75
22743;BME280;11538;48.884;8.696;2023-02-13T14:07:40;100612.38;;;16.87;43.71
22743;BME280;11538;48.884;8.696;2023-02-13T14:12:48;100609.84;;;16.52;45.14
22743;BME280;11538;48.884;8.696;2023-02-13T14:31:28;100599.13;;;12.95;54.97
22743;BME280;11538;48.884;8.696;2023-02-13T14:34:06;100592.56;;;12.81;55.92
22743;BME280;11538;48.884;8.696;2023-02-13T14:39:30;100589.22;;;12.48;56.77
22743;BME280;11538;48.884;8.696;2023-02-13T14:41:59;100582.13;;;12.41;57.14
22743;BME280;11538;48.884;8.696;2023-02-13T14:44:33;100588.09;;;12.33;57.59
22743;BME280;11538;48.884;8.696;2023-02-13T14:47:38;100591.56;;;12.18;57.81
22743;BME280;11538;48.884;8.696;2023-02-13T14:50:25;100588.81;;;12.13;58.04
22743;BME280;11538;48.884;8.696;2023-02-13T14:52:56;100575.13;;;11.97;59.02
22743;BME280;11538;48.884;8.696;2023-02-13T14:55:41;100582.72;;;11.90;59.19
22743;BME280;11538;48.884;8.696;2023-02-13T14:58:15;100572.06;;;11.83;59.45
22743;BME280;11538;48.884;8.696;2023-02-13T15:03:45;100571.69;;;11.64;59.63
22743;BME280;11538;48.884;8.696;2023-02-13T15:06:33;100562.47;;;11.65;59.76
22743;BME280;11538;48.884;8.696;2023-02-13T15:09:04;100569.75;;;11.60;59.75
22743;BME280;11538;48.884;8.696;2023-02-13T15:11:41;100565.38;;;11.53;60.39
22743;BME280;11538;48.884;8.696;2023-02-13T15:16:42;100563.09;;;11.40;60.71
22743;BME280;11538;48.884;8.696;2023-02-13T15:19:14;100563.63;;;11.37;60.72
22743;BME280;11538;48.884;8.696;2023-02-13T15:21:49;100560.84;;;11.26;60.94
22743;BME280;11538;48.884;8.696;2023-02-13T15:24:19;100554.22;;;11.12;61.53